Aegean Pride — ELXK8 — position and weather

sailwx.info

Track history (hours):
 
Tides and Currents Weather Stations Pressure Air Temp Water Temp Dewpoint Dewpoint Depression Visibility Wind Speed Wind Dir Waves Ship Positions

Aegean Pride

Last reported at 2015-Aug-01 06:33 UTC. Time now 2015-Aug-01 07:46 UTC.
Position N 34°27' E 027°57'.

; draft 14.2 m.

Type: Ship (hazmat cat B). MMSI: 636011186.

Date/timePositionNaut miles runAvg speedWind from/ knotsBaromVisibWave heightAir tempDewpointWater temp
2015-Aug-01 06:33N 34°27' E 027°57'7413.4
2015-Aug-01 01:04N 33°41' E 029°07'714.1
2015-Aug-01 00:33N 33°37' E 029°13'2114.0
2015-Jul-31 23:05N 33°24' E 029°33'3413.6
2015-Jul-31 20:33N 33°02' E 030°05'1413.5
2015-Jul-31 19:33N 32°54' E 030°17'1413.6
2015-Jul-31 18:33N 32°45' E 030°30'3013.6
2015-Jul-31 16:22N 32°27' E 030°58'3113.4
2015-Jul-31 14:05N 32°07' E 031°26'813.2
2015-Jul-31 13:29N 32°03' E 031°33'1412.8
2015-Jul-31 12:25N 31°54' E 031°46'2912.4
2015-Jul-31 10:03N 31°34' E 032°11'611.2
2015-Jul-31 09:33N 31°31' E 032°16'57 8.9
2015-Jul-31 03:05N 30°34' E 032°18'52 1.8
2015-Jul-29 22:25N 29°44' E 032°37'  
Track history (hours):
 
Tides and Currents Weather Stations Pressure Air Temp Water Temp Dewpoint Dewpoint Depression Visibility Wind Speed Wind Dir Waves Ship Positions

Aegean Pride

Last reported at 2015-Aug-01 06:33 UTC. Time now 2015-Aug-01 07:46 UTC.
Position N 34°27' E 027°57'.

; draft 14.2 m.

Type: Ship (hazmat cat B). MMSI: 636011186.

Date/timePositionNaut miles runAvg speedWind from/ knotsBaromVisibWave heightAir tempDewpointWater temp
2015-Aug-01 06:33N 34°27' E 027°57'7413.4
2015-Aug-01 01:04N 33°41' E 029°07'714.1
2015-Aug-01 00:33N 33°37' E 029°13'2114.0
2015-Jul-31 23:05N 33°24' E 029°33'3413.6
2015-Jul-31 20:33N 33°02' E 030°05'1413.5
2015-Jul-31 19:33N 32°54' E 030°17'1413.6
2015-Jul-31 18:33N 32°45' E 030°30'3013.6
2015-Jul-31 16:22N 32°27' E 030°58'3113.4
2015-Jul-31 14:05N 32°07' E 031°26'813.2
2015-Jul-31 13:29N 32°03' E 031°33'1412.8
2015-Jul-31 12:25N 31°54' E 031°46'2912.4
2015-Jul-31 10:03N 31°34' E 032°11'611.2
2015-Jul-31 09:33N 31°31' E 032°16'57 8.9
2015-Jul-31 03:05N 30°34' E 032°18'52 1.8
2015-Jul-29 22:25N 29°44' E 032°37'  

Dump ship's entire track history